sensor_id;sensor_type;location;lat;lon;timestamp;pressure;altitude;pressure_sealevel;temperature;humidity
45275;BME280;31019;43.780;25.948;2023-03-21T00:01:11;101037.56;;;4.74;100.00
45275;BME280;31019;43.780;25.948;2023-03-21T00:03:38;101041.03;;;4.82;100.00
45275;BME280;31019;43.780;25.948;2023-03-21T00:06:09;101042.06;;;4.47;100.00
45275;BME280;31019;43.780;25.948;2023-03-21T00:08:37;101042.53;;;4.85;100.00
45275;BME280;31019;43.780;25.948;2023-03-21T00:11:07;101038.22;;;4.76;100.00
45275;BME280;31019;43.780;25.948;2023-03-21T00:13:34;101047.34;;;4.98;100.00
45275;BME280;31019;43.780;25.948;2023-03-21T00:16:05;101047.47;;;4.88;100.00
45275;BME280;31019;43.780;25.948;2023-03-21T00:18:32;101052.28;;;5.01;100.00
45275;BME280;31019;43.780;25.948;2023-03-21T00:21:02;101056.75;;;5.17;100.00
45275;BME280;31019;43.780;25.948;2023-03-21T00:23:30;101058.25;;;5.27;100.00
45275;BME280;31019;43.780;25.948;2023-03-21T00:25:58;101052.97;;;5.27;100.00
45275;BME280;31019;43.780;25.948;2023-03-21T00:28:25;101058.00;;;4.88;100.00
45275;BME280;31019;43.780;25.948;2023-03-21T00:30:56;101056.56;;;5.10;100.00
45275;BME280;31019;43.780;25.948;2023-03-21T00:33:25;101059.91;;;5.37;100.00
45275;BME280;31019;43.780;25.948;2023-03-21T00:35:52;101053.34;;;5.33;100.00
45275;BME280;31019;43.780;25.948;2023-03-21T00:38:19;101048.22;;;5.56;100.00
45275;BME280;31019;43.780;25.948;2023-03-21T00:40:47;101052.69;;;5.39;100.00
45275;BME280;31019;43.780;25.948;2023-03-21T00:43:14;101045.09;;;5.44;100.00
45275;BME280;31019;43.780;25.948;2023-03-21T00:45:43;101045.44;;;5.33;100.00
45275;BME280;31019;43.780;25.948;2023-03-21T00:48:10;101038.31;;;5.17;100.00
45275;BME280;31019;43.780;25.948;2023-03-21T00:50:39;101027.28;;;5.13;100.00
45275;BME280;31019;43.780;25.948;2023-03-21T00:53:06;101027.25;;;4.97;100.00
45275;BME280;31019;43.780;25.948;2023-03-21T00:55:33;101015.41;;;4.85;100.00
45275;BME280;31019;43.780;25.948;2023-03-21T00:58:00;101015.09;;;5.04;100.00
45275;BME280;31019;43.780;25.948;2023-03-21T01:00:27;101020.22;;;5.22;100.00
45275;BME280;31019;43.780;25.948;2023-03-21T01:02:53;101014.94;;;5.14;100.00
45275;BME280;31019;43.780;25.948;2023-03-21T01:05:24;101012.16;;;5.15;100.00
45275;BME280;31019;43.780;25.948;2023-03-21T01:08:06;101014.28;;;5.28;100.00
45275;BME280;31019;43.780;25.948;2023-03-21T01:10:37;101011.00;;;5.50;100.00
45275;BME280;31019;43.780;25.948;2023-03-21T01:13:04;101009.22;;;5.51;100.00
45275;BME280;31019;43.780;25.948;2023-03-21T01:15:30;100995.69;;;5.46;100.00
45275;BME280;31019;43.780;25.948;2023-03-21T01:17:57;100980.53;;;5.56;100.00
45275;BME280;31019;43.780;25.948;2023-03-21T01:20:24;100975.09;;;5.58;100.00
45275;BME280;31019;43.780;25.948;2023-03-21T01:22:51;100961.59;;;5.53;100.00
45275;BME280;31019;43.780;25.948;2023-03-21T01:25:19;100966.72;;;5.38;100.00
45275;BME280;31019;43.780;25.948;2023-03-21T01:27:46;100970.19;;;5.22;100.00
45275;BME280;31019;43.780;25.948;2023-03-21T01:30:13;100955.47;;;5.68;100.00
45275;BME280;31019;43.780;25.948;2023-03-21T01:32:40;100959.94;;;5.60;100.00
45275;BME280;31019;43.780;25.948;2023-03-21T01:35:07;100964.56;;;5.49;100.00
45275;BME280;31019;43.780;25.948;2023-03-21T01:37:34;100966.66;;;5.79;100.00
45275;BME280;31019;43.780;25.948;2023-03-21T01:40:01;100962.06;;;5.72;100.00
45275;BME280;31019;43.780;25.948;2023-03-21T01:42:30;100960.25;;;5.73;100.00
45275;BME280;31019;43.780;25.948;2023-03-21T01:44:59;100968.16;;;5.57;100.00
45275;BME280;31019;43.780;25.948;2023-03-21T01:47:26;100963.91;;;5.56;100.00
45275;BME280;31019;43.780;25.948;2023-03-21T01:49:55;100965.16;;;6.01;100.00
45275;BME280;31019;43.780;25.948;2023-03-21T01:52:25;100956.59;;;5.90;100.00
45275;BME280;31019;43.780;25.948;2023-03-21T01:54:54;100951.50;;;5.97;100.00
45275;BME280;31019;43.780;25.948;2023-03-21T01:57:26;100954.28;;;5.95;100.00
45275;BME280;31019;43.780;25.948;2023-03-21T01:59:59;100947.38;;;5.94;100.00
45275;BME280;31019;43.780;25.948;2023-03-21T02:02:38;100940.59;;;6.00;100.00
45275;BME280;31019;43.780;25.948;2023-03-21T02:05:16;100946.66;;;6.09;100.00
45275;BME280;31019;43.780;25.948;2023-03-21T02:07:44;100935.44;;;6.15;100.00
45275;BME280;31019;43.780;25.948;2023-03-21T02:10:14;100918.28;;;6.11;100.00
45275;BME280;31019;43.780;25.948;2023-03-21T02:12:42;100905.44;;;6.08;100.00
45275;BME280;31019;43.780;25.948;2023-03-21T02:15:10;100908.50;;;6.28;100.00
45275;BME280;31019;43.780;25.948;2023-03-21T02:17:40;100899.03;;;6.41;100.00
45275;BME280;31019;43.780;25.948;2023-03-21T02:20:45;100897.53;;;6.70;100.00
45275;BME280;31019;43.780;25.948;2023-03-21T02:24:02;100906.59;;;6.68;100.00
45275;BME280;31019;43.780;25.948;2023-03-21T02:26:53;100914.13;;;6.79;100.00
45275;BME280;31019;43.780;25.948;2023-03-21T02:32:19;100919.50;;;6.00;100.00
45275;BME280;31019;43.780;25.948;2023-03-21T02:35:03;100924.84;;;6.54;100.00
45275;BME280;31019;43.780;25.948;2023-03-21T02:37:38;100958.16;;;6.24;100.00
45275;BME280;31019;43.780;25.948;2023-03-21T02:40:11;100978.44;;;6.55;100.00
45275;BME280;31019;43.780;25.948;2023-03-21T02:42:51;100963.88;;;6.36;100.00
45275;BME280;31019;43.780;25.948;2023-03-21T02:45:20;100969.63;;;6.39;100.00
45275;BME280;31019;43.780;25.948;2023-03-21T02:47:52;100960.28;;;6.60;100.00
45275;BME280;31019;43.780;25.948;2023-03-21T02:50:25;100945.97;;;6.54;100.00
45275;BME280;31019;43.780;25.948;2023-03-21T02:52:56;100962.84;;;6.68;100.00
45275;BME280;31019;43.780;25.948;2023-03-21T02:55:24;100953.69;;;6.56;100.00
45275;BME280;31019;43.780;25.948;2023-03-21T02:57:53;100958.47;;;6.60;100.00
45275;BME280;31019;43.780;25.948;2023-03-21T03:00:22;100954.91;;;6.45;100.00
45275;BME280;31019;43.780;25.948;2023-03-21T03:02:49;100966.94;;;6.48;100.00
45275;BME280;31019;43.780;25.948;2023-03-21T03:05:18;100969.03;;;6.21;100.00
45275;BME280;31019;43.780;25.948;2023-03-21T03:07:57;100980.66;;;6.35;100.00
45275;BME280;31019;43.780;25.948;2023-03-21T03:10:38;100979.34;;;6.39;100.00
45275;BME280;31019;43.780;25.948;2023-03-21T03:13:16;100970.63;;;6.38;100.00
45275;BME280;31019;43.780;25.948;2023-03-21T03:15:55;100968.13;;;6.45;100.00
45275;BME280;31019;43.780;25.948;2023-03-21T03:18:30;100958.78;;;6.26;100.00
45275;BME280;31019;43.780;25.948;2023-03-21T03:21:04;100954.16;;;6.28;100.00
45275;BME280;31019;43.780;25.948;2023-03-21T03:23:41;100958.44;;;5.82;100.00
45275;BME280;31019;43.780;25.948;2023-03-21T03:26:12;100957.50;;;6.14;100.00
45275;BME280;31019;43.780;25.948;2023-03-21T03:28:44;100960.72;;;6.32;100.00
45275;BME280;31019;43.780;25.948;2023-03-21T03:31:15;100954.78;;;6.38;100.00
45275;BME280;31019;43.780;25.948;2023-03-21T03:33:48;100962.84;;;6.06;100.00
45275;BME280;31019;43.780;25.948;2023-03-21T03:36:17;100959.72;;;5.86;100.00
45275;BME280;31019;43.780;25.948;2023-03-21T03:38:48;100962.34;;;6.02;100.00
45275;BME280;31019;43.780;25.948;2023-03-21T03:41:18;100966.94;;;5.92;100.00
45275;BME280;31019;43.780;25.948;2023-03-21T03:43:49;100967.13;;;5.90;100.00
45275;BME280;31019;43.780;25.948;2023-03-21T03:46:24;100967.44;;;6.04;100.00
45275;BME280;31019;43.780;25.948;2023-03-21T03:48:54;100968.13;;;5.97;100.00
45275;BME280;31019;43.780;25.948;2023-03-21T03:51:25;100973.19;;;6.15;100.00
45275;BME280;31019;43.780;25.948;2023-03-21T03:53:57;100969.06;;;6.13;100.00
45275;BME280;31019;43.780;25.948;2023-03-21T03:56:26;100964.47;;;6.07;100.00
45275;BME280;31019;43.780;25.948;2023-03-21T03:58:53;100954.59;;;6.01;100.00
45275;BME280;31019;43.780;25.948;2023-03-21T04:01:21;100965.06;;;5.53;100.00
45275;BME280;31019;43.780;25.948;2023-03-21T04:03:48;100980.38;;;5.41;100.00
45275;BME280;31019;43.780;25.948;2023-03-21T04:06:15;100982.69;;;5.36;100.00
45275;BME280;31019;43.780;25.948;2023-03-21T04:08:42;100979.03;;;5.54;100.00
45275;BME280;31019;43.780;25.948;2023-03-21T04:11:12;100979.69;;;5.72;100.00
45275;BME280;31019;43.780;25.948;2023-03-21T04:13:40;100978.88;;;5.47;100.00
45275;BME280;31019;43.780;25.948;2023-03-21T04:16:08;100998.16;;;5.47;100.00
45275;BME280;31019;43.780;25.948;2023-03-21T04:18:35;100988.13;;;5.43;100.00
45275;BME280;31019;43.780;25.948;2023-03-21T04:21:07;100996.50;;;5.14;100.00
45275;BME280;31019;43.780;25.948;2023-03-21T04:23:33;100993.84;;;4.89;100.00
45275;BME280;31019;43.780;25.948;2023-03-21T04:26:01;101005.75;;;5.34;100.00
45275;BME280;31019;43.780;25.948;2023-03-21T04:28:30;101007.06;;;5.46;100.00
45275;BME280;31019;43.780;25.948;2023-03-21T04:30:57;101003.25;;;5.41;100.00
45275;BME280;31019;43.780;25.948;2023-03-21T04:33:24;101007.88;;;5.63;100.00
45275;BME280;31019;43.780;25.948;2023-03-21T04:35:51;100996.53;;;5.55;100.00
45275;BME280;31019;43.780;25.948;2023-03-21T04:38:20;100989.72;;;5.68;100.00
45275;BME280;31019;43.780;25.948;2023-03-21T04:40:47;100992.56;;;5.59;100.00
45275;BME280;31019;43.780;25.948;2023-03-21T04:43:14;101006.03;;;5.80;100.00
45275;BME280;31019;43.780;25.948;2023-03-21T04:45:42;101009.81;;;5.86;100.00
45275;BME280;31019;43.780;25.948;2023-03-21T04:48:09;101009.66;;;5.95;100.00
45275;BME280;31019;43.780;25.948;2023-03-21T04:50:38;101000.78;;;5.96;100.00
45275;BME280;31019;43.780;25.948;2023-03-21T04:53:05;101002.06;;;6.09;100.00
45275;BME280;31019;43.780;25.948;2023-03-21T04:55:31;100999.19;;;6.27;100.00
45275;BME280;31019;43.780;25.948;2023-03-21T04:57:58;101008.25;;;6.24;100.00
45275;BME280;31019;43.780;25.948;2023-03-21T05:00:25;101002.00;;;6.17;100.00
45275;BME280;31019;43.780;25.948;2023-03-21T05:02:53;100994.38;;;6.38;100.00
45275;BME280;31019;43.780;25.948;2023-03-21T05:05:22;100997.06;;;6.53;100.00
45275;BME280;31019;43.780;25.948;2023-03-21T05:07:48;100994.94;;;6.57;100.00
45275;BME280;31019;43.780;25.948;2023-03-21T05:10:15;100993.56;;;6.69;100.00
45275;BME280;31019;43.780;25.948;2023-03-21T05:12:42;100991.66;;;6.47;100.00
45275;BME280;31019;43.780;25.948;2023-03-21T05:15:09;100992.25;;;6.65;100.00
45275;BME280;31019;43.780;25.948;2023-03-21T05:17:36;100995.19;;;6.70;100.00
45275;BME280;31019;43.780;25.948;2023-03-21T05:20:05;100992.88;;;6.98;100.00
45275;BME280;31019;43.780;25.948;2023-03-21T05:22:34;100987.13;;;6.95;100.00
45275;BME280;31019;43.780;25.948;2023-03-21T05:25:06;100985.06;;;6.82;100.00
45275;BME280;31019;43.780;25.948;2023-03-21T05:27:33;101002.50;;;6.91;100.00
45275;BME280;31019;43.780;25.948;2023-03-21T05:30:04;101002.19;;;6.86;100.00
45275;BME280;31019;43.780;25.948;2023-03-21T05:32:32;100997.88;;;6.93;100.00
45275;BME280;31019;43.780;25.948;2023-03-21T05:34:59;100994.34;;;7.01;100.00
45275;BME280;31019;43.780;25.948;2023-03-21T05:37:27;100999.03;;;7.14;100.00
45275;BME280;31019;43.780;25.948;2023-03-21T05:39:54;100991.25;;;7.20;100.00
45275;BME280;31019;43.780;25.948;2023-03-21T05:42:21;100987.69;;;7.05;100.00
45275;BME280;31019;43.780;25.948;2023-03-21T05:44:48;100982.91;;;7.08;100.00
45275;BME280;31019;43.780;25.948;2023-03-21T05:47:16;100986.59;;;7.22;100.00
45275;BME280;31019;43.780;25.948;2023-03-21T05:49:43;100977.13;;;7.28;100.00
45275;BME280;31019;43.780;25.948;2023-03-21T05:52:11;100983.38;;;7.12;100.00
45275;BME280;31019;43.780;25.948;2023-03-21T05:54:39;100978.81;;;7.44;100.00
45275;BME280;31019;43.780;25.948;2023-03-21T05:57:06;100979.81;;;7.43;100.00
45275;BME280;31019;43.780;25.948;2023-03-21T05:59:33;100978.69;;;7.37;100.00
45275;BME280;31019;43.780;25.948;2023-03-21T06:02:00;100981.38;;;7.52;100.00
45275;BME280;31019;43.780;25.948;2023-03-21T06:04:27;100985.94;;;7.58;100.00
45275;BME280;31019;43.780;25.948;2023-03-21T06:06:54;100985.06;;;7.66;100.00
45275;BME280;31019;43.780;25.948;2023-03-21T06:09:21;100984.97;;;7.89;100.00
45275;BME280;31019;43.780;25.948;2023-03-21T06:11:51;100976.59;;;8.15;100.00
45275;BME280;31019;43.780;25.948;2023-03-21T06:14:19;100986.25;;;8.37;100.00
45275;BME280;31019;43.780;25.948;2023-03-21T06:16:46;100987.06;;;8.38;100.00
45275;BME280;31019;43.780;25.948;2023-03-21T06:19:13;100994.16;;;8.67;100.00
45275;BME280;31019;43.780;25.948;2023-03-21T06:21:40;100995.72;;;8.61;100.00
45275;BME280;31019;43.780;25.948;2023-03-21T06:24:07;101002.09;;;9.03;100.00
45275;BME280;31019;43.780;25.948;2023-03-21T06:26:34;101003.16;;;9.09;100.00
45275;BME280;31019;43.780;25.948;2023-03-21T06:29:02;101004.50;;;9.41;100.00
45275;BME280;31019;43.780;25.948;2023-03-21T06:31:29;101010.78;;;9.40;100.00
45275;BME280;31019;43.780;25.948;2023-03-21T06:33:56;101006.84;;;9.29;100.00
45275;BME280;31019;43.780;25.948;2023-03-21T06:36:23;101009.84;;;9.48;100.00
45275;BME280;31019;43.780;25.948;2023-03-21T06:38:49;101008.59;;;9.72;100.00
45275;BME280;31019;43.780;25.948;2023-03-21T06:41:16;101007.78;;;9.99;100.00
45275;BME280;31019;43.780;25.948;2023-03-21T06:43:44;101007.41;;;10.44;100.00
45275;BME280;31019;43.780;25.948;2023-03-21T06:46:12;101015.69;;;10.62;100.00
45275;BME280;31019;43.780;25.948;2023-03-21T06:48:39;101015.47;;;10.64;100.00
45275;BME280;31019;43.780;25.948;2023-03-21T06:51:09;101016.53;;;10.83;100.00
45275;BME280;31019;43.780;25.948;2023-03-21T06:53:37;101013.53;;;10.99;100.00
45275;BME280;31019;43.780;25.948;2023-03-21T06:56:04;101018.28;;;11.37;100.00
45275;BME280;31019;43.780;25.948;2023-03-21T06:58:31;101008.25;;;11.32;100.00
45275;BME280;31019;43.780;25.948;2023-03-21T07:00:58;101016.84;;;11.61;100.00
45275;BME280;31019;43.780;25.948;2023-03-21T07:03:27;101017.47;;;11.63;100.00
45275;BME280;31019;43.780;25.948;2023-03-21T07:05:54;101007.22;;;11.73;100.00
45275;BME280;31019;43.780;25.948;2023-03-21T07:08:21;101005.16;;;11.95;100.00
45275;BME280;31019;43.780;25.948;2023-03-21T07:10:48;100989.38;;;12.07;100.00
45275;BME280;31019;43.780;25.948;2023-03-21T07:13:15;100996.03;;;12.43;100.00
45275;BME280;31019;43.780;25.948;2023-03-21T07:15:42;100994.16;;;12.50;100.00
45275;BME280;31019;43.780;25.948;2023-03-21T07:18:09;100990.78;;;12.68;100.00
45275;BME280;31019;43.780;25.948;2023-03-21T07:20:37;101000.00;;;13.03;100.00
45275;BME280;31019;43.780;25.948;2023-03-21T07:23:04;100995.25;;;12.80;100.00
45275;BME280;31019;43.780;25.948;2023-03-21T07:25:31;100987.69;;;13.41;100.00
45275;BME280;31019;43.780;25.948;2023-03-21T07:27:58;100980.97;;;13.32;100.00
45275;BME280;31019;43.780;25.948;2023-03-21T07:30:26;100987.03;;;13.14;100.00
45275;BME280;31019;43.780;25.948;2023-03-21T07:32:53;100979.84;;;13.14;100.00
45275;BME280;31019;43.780;25.948;2023-03-21T07:35:20;100983.50;;;13.70;100.00
45275;BME280;31019;43.780;25.948;2023-03-21T07:37:48;100985.31;;;14.13;100.00
45275;BME280;31019;43.780;25.948;2023-03-21T07:40:15;100975.75;;;14.42;100.00
45275;BME280;31019;43.780;25.948;2023-03-21T07:42:42;100971.50;;;14.71;100.00
45275;BME280;31019;43.780;25.948;2023-03-21T07:45:10;100979.16;;;14.79;100.00
45275;BME280;31019;43.780;25.948;2023-03-21T07:47:39;100973.69;;;15.28;100.00
45275;BME280;31019;43.780;25.948;2023-03-21T07:50:07;100969.94;;;15.05;100.00
45275;BME280;31019;43.780;25.948;2023-03-21T07:52:33;100966.94;;;14.72;100.00
45275;BME280;31019;43.780;25.948;2023-03-21T07:55:02;100973.66;;;14.44;100.00
45275;BME280;31019;43.780;25.948;2023-03-21T07:57:29;100975.47;;;14.13;100.00
45275;BME280;31019;43.780;25.948;2023-03-21T07:59:55;100987.88;;;13.64;100.00
45275;BME280;31019;43.780;25.948;2023-03-21T08:02:22;100992.09;;;13.22;100.00
45275;BME280;31019;43.780;25.948;2023-03-21T08:04:49;101000.09;;;13.22;100.00
45275;BME280;31019;43.780;25.948;2023-03-21T08:07:16;100996.56;;;13.78;100.00
45275;BME280;31019;43.780;25.948;2023-03-21T08:09:43;100996.00;;;13.94;100.00
45275;BME280;31019;43.780;25.948;2023-03-21T08:12:12;100994.09;;;14.87;100.00
45275;BME280;31019;43.780;25.948;2023-03-21T08:14:38;100995.50;;;14.41;100.00
45275;BME280;31019;43.780;25.948;2023-03-21T08:17:06;100995.91;;;13.83;100.00
45275;BME280;31019;43.780;25.948;2023-03-21T08:19:34;100989.91;;;14.42;100.00
45275;BME280;31019;43.780;25.948;2023-03-21T08:22:01;100998.81;;;13.81;100.00
45275;BME280;31019;43.780;25.948;2023-03-21T08:24:30;100992.78;;;14.78;100.00
45275;BME280;31019;43.780;25.948;2023-03-21T08:26:58;100994.41;;;14.79;100.00
45275;BME280;31019;43.780;25.948;2023-03-21T08:29:26;100994.47;;;15.91;100.00
45275;BME280;31019;43.780;25.948;2023-03-21T08:31:53;100979.75;;;16.58;100.00
45275;BME280;31019;43.780;25.948;2023-03-21T08:34:20;100986.97;;;14.81;100.00
45275;BME280;31019;43.780;25.948;2023-03-21T08:36:47;100981.72;;;14.07;100.00
45275;BME280;31019;43.780;25.948;2023-03-21T08:39:14;100993.63;;;13.86;100.00
45275;BME280;31019;43.780;25.948;2023-03-21T08:41:40;100981.53;;;14.39;100.00
45275;BME280;31019;43.780;25.948;2023-03-21T08:44:08;100982.81;;;14.18;100.00
45275;BME280;31019;43.780;25.948;2023-03-21T08:46:36;100992.31;;;15.11;100.00
45275;BME280;31019;43.780;25.948;2023-03-21T08:49:03;100978.25;;;15.39;100.00
45275;BME280;31019;43.780;25.948;2023-03-21T08:51:30;100981.81;;;15.75;100.00
45275;BME280;31019;43.780;25.948;2023-03-21T08:53:58;100985.31;;;16.27;100.00
45275;BME280;31019;43.780;25.948;2023-03-21T08:56:25;100976.72;;;14.11;100.00
45275;BME280;31019;43.780;25.948;2023-03-21T08:58:51;100975.16;;;15.77;100.00
45275;BME280;31019;43.780;25.948;2023-03-21T09:01:18;100981.78;;;15.98;100.00
45275;BME280;31019;43.780;25.948;2023-03-21T09:03:46;100971.44;;;14.41;100.00
45275;BME280;31019;43.780;25.948;2023-03-21T09:06:13;100968.97;;;15.42;100.00
45275;BME280;31019;43.780;25.948;2023-03-21T09:08:40;100964.41;;;14.77;100.00
45275;BME280;31019;43.780;25.948;2023-03-21T09:11:07;100955.47;;;15.95;100.00
45275;BME280;31019;43.780;25.948;2023-03-21T09:13:34;100959.47;;;17.58;100.00
45275;BME280;31019;43.780;25.948;2023-03-21T09:16:01;100964.44;;;15.54;100.00
45275;BME280;31019;43.780;25.948;2023-03-21T09:18:29;100960.25;;;15.70;100.00
45275;BME280;31019;43.780;25.948;2023-03-21T09:21:11;100963.38;;;17.33;100.00
45275;BME280;31019;43.780;25.948;2023-03-21T09:23:39;100955.13;;;18.13;100.00
45275;BME280;31019;43.780;25.948;2023-03-21T09:26:06;100958.88;;;17.90;100.00
45275;BME280;31019;43.780;25.948;2023-03-21T09:28:34;100966.72;;;17.07;98.89
45275;BME280;31019;43.780;25.948;2023-03-21T09:31:02;100962.19;;;17.07;100.00
45275;BME280;31019;43.780;25.948;2023-03-21T09:33:29;100960.94;;;17.82;100.00
45275;BME280;31019;43.780;25.948;2023-03-21T09:35:59;100954.31;;;17.73;100.00
45275;BME280;31019;43.780;25.948;2023-03-21T09:38:27;100946.34;;;19.31;100.00
45275;BME280;31019;43.780;25.948;2023-03-21T09:41:08;100947.97;;;18.45;100.00
45275;BME280;31019;43.780;25.948;2023-03-21T09:43:47;100956.22;;;16.31;100.00
45275;BME280;31019;43.780;25.948;2023-03-21T09:46:21;100963.16;;;15.56;100.00
45275;BME280;31019;43.780;25.948;2023-03-21T09:48:55;100969.28;;;15.22;100.00
45275;BME280;31019;43.780;25.948;2023-03-21T09:51:25;100968.59;;;17.40;100.00
45275;BME280;31019;43.780;25.948;2023-03-21T09:53:56;100971.06;;;17.97;100.00
45275;BME280;31019;43.780;25.948;2023-03-21T09:56:26;100969.59;;;16.31;100.00
45275;BME280;31019;43.780;25.948;2023-03-21T09:58:56;100976.63;;;16.89;100.00
45275;BME280;31019;43.780;25.948;2023-03-21T10:01:26;100972.75;;;17.31;100.00
45275;BME280;31019;43.780;25.948;2023-03-21T10:03:55;100973.72;;;17.42;100.00
45275;BME280;31019;43.780;25.948;2023-03-21T10:06:23;100974.53;;;16.91;100.00
45275;BME280;31019;43.780;25.948;2023-03-21T10:08:57;100978.59;;;17.61;100.00
45275;BME280;31019;43.780;25.948;2023-03-21T10:11:27;100958.50;;;15.87;100.00
45275;BME280;31019;43.780;25.948;2023-03-21T10:14:00;100972.50;;;17.15;100.00
45275;BME280;31019;43.780;25.948;2023-03-21T10:16:31;100971.53;;;17.55;100.00
45275;BME280;31019;43.780;25.948;2023-03-21T10:18:59;100973.19;;;16.65;100.00
45275;BME280;31019;43.780;25.948;2023-03-21T10:21:28;100960.97;;;16.58;100.00
45275;BME280;31019;43.780;25.948;2023-03-21T10:23:58;100960.47;;;17.35;100.00
45275;BME280;31019;43.780;25.948;2023-03-21T10:26:27;100958.72;;;16.78;100.00
45275;BME280;31019;43.780;25.948;2023-03-21T10:28:57;100962.97;;;16.62;100.00
45275;BME280;31019;43.780;25.948;2023-03-21T10:31:26;100950.13;;;16.93;100.00
45275;BME280;31019;43.780;25.948;2023-03-21T10:33:57;100948.50;;;16.92;100.00
45275;BME280;31019;43.780;25.948;2023-03-21T10:36:27;100947.06;;;16.44;100.00
45275;BME280;31019;43.780;25.948;2023-03-21T10:38:59;100949.53;;;15.82;100.00
45275;BME280;31019;43.780;25.948;2023-03-21T10:41:28;100948.38;;;15.54;100.00
45275;BME280;31019;43.780;25.948;2023-03-21T10:44:07;100941.50;;;16.34;100.00
45275;BME280;31019;43.780;25.948;2023-03-21T10:46:35;100941.97;;;16.31;100.00
45275;BME280;31019;43.780;25.948;2023-03-21T10:49:02;100934.81;;;16.19;100.00
45275;BME280;31019;43.780;25.948;2023-03-21T10:51:35;100937.63;;;16.41;100.00
45275;BME280;31019;43.780;25.948;2023-03-21T10:54:06;100934.94;;;16.41;100.00
45275;BME280;31019;43.780;25.948;2023-03-21T10:56:36;100925.69;;;15.80;100.00
45275;BME280;31019;43.780;25.948;2023-03-21T10:59:05;100928.59;;;15.78;100.00
45275;BME280;31019;43.780;25.948;2023-03-21T11:01:36;100932.66;;;15.81;100.00
45275;BME280;31019;43.780;25.948;2023-03-21T11:04:11;100935.66;;;16.65;100.00
45275;BME280;31019;43.780;25.948;2023-03-21T11:06:41;100930.56;;;15.60;100.00
45275;BME280;31019;43.780;25.948;2023-03-21T11:09:16;100925.41;;;16.05;100.00
45275;BME280;31019;43.780;25.948;2023-03-21T11:11:50;100921.69;;;16.35;100.00
45275;BME280;31019;43.780;25.948;2023-03-21T11:14:30;100921.41;;;16.19;100.00
45275;BME280;31019;43.780;25.948;2023-03-21T11:16:57;100917.34;;;16.05;100.00
45275;BME280;31019;43.780;25.948;2023-03-21T11:19:30;100925.53;;;15.04;100.00
45275;BME280;31019;43.780;25.948;2023-03-21T11:21:58;100920.56;;;14.66;100.00
45275;BME280;31019;43.780;25.948;2023-03-21T11:24:28;100920.41;;;15.97;100.00
45275;BME280;31019;43.780;25.948;2023-03-21T11:26:56;100919.84;;;15.60;100.00
45275;BME280;31019;43.780;25.948;2023-03-21T11:29:28;100915.63;;;16.27;100.00
45275;BME280;31019;43.780;25.948;2023-03-21T11:32:00;100909.00;;;15.66;100.00
45275;BME280;31019;43.780;25.948;2023-03-21T11:34:42;100901.84;;;15.31;100.00
45275;BME280;31019;43.780;25.948;2023-03-21T11:37:18;100896.81;;;15.47;100.00
45275;BME280;31019;43.780;25.948;2023-03-21T11:39:46;100895.88;;;15.65;100.00
45275;BME280;31019;43.780;25.948;2023-03-21T11:42:28;100893.94;;;16.00;100.00
45275;BME280;31019;43.780;25.948;2023-03-21T11:45:02;100899.91;;;15.91;100.00
45275;BME280;31019;43.780;25.948;2023-03-21T11:47:30;100889.47;;;15.66;100.00
45275;BME280;31019;43.780;25.948;2023-03-21T11:49:57;100891.34;;;15.53;100.00
45275;BME280;31019;43.780;25.948;2023-03-21T11:52:31;100884.13;;;15.30;100.00
45275;BME280;31019;43.780;25.948;2023-03-21T11:55:16;100877.81;;;15.84;100.00
45275;BME280;31019;43.780;25.948;2023-03-21T11:57:56;100876.69;;;15.32;100.00
45275;BME280;31019;43.780;25.948;2023-03-21T12:00:29;100879.38;;;15.21;100.00
45275;BME280;31019;43.780;25.948;2023-03-21T12:03:29;100885.13;;;14.82;100.00
45275;BME280;31019;43.780;25.948;2023-03-21T12:06:04;100876.91;;;14.96;100.00
45275;BME280;31019;43.780;25.948;2023-03-21T12:08:42;100877.69;;;14.84;100.00
45275;BME280;31019;43.780;25.948;2023-03-21T12:11:15;100879.91;;;14.87;100.00
45275;BME280;31019;43.780;25.948;2023-03-21T12:13:51;100870.88;;;15.12;100.00
45275;BME280;31019;43.780;25.948;2023-03-21T12:16:47;100875.16;;;14.89;100.00
45275;BME280;31019;43.780;25.948;2023-03-21T12:19:38;100872.03;;;14.93;100.00
45275;BME280;31019;43.780;25.948;2023-03-21T12:22:14;100868.66;;;13.95;100.00
45275;BME280;31019;43.780;25.948;2023-03-21T12:24:47;100867.31;;;14.53;100.00
45275;BME280;31019;43.780;25.948;2023-03-21T12:27:24;100842.16;;;13.93;100.00
45275;BME280;31019;43.780;25.948;2023-03-21T12:30:09;100838.06;;;14.09;100.00
45275;BME280;31019;43.780;25.948;2023-03-21T12:32:47;100824.44;;;13.99;100.00
45275;BME280;31019;43.780;25.948;2023-03-21T12:35:38;100808.88;;;14.26;100.00
45275;BME280;31019;43.780;25.948;2023-03-21T12:38:14;100818.03;;;14.30;100.00
45275;BME280;31019;43.780;25.948;2023-03-21T12:41:02;100817.31;;;14.53;100.00
45275;BME280;31019;43.780;25.948;2023-03-21T12:43:44;100814.34;;;14.85;100.00
45275;BME280;31019;43.780;25.948;2023-03-21T12:46:18;100813.22;;;14.51;100.00
45275;BME280;31019;43.780;25.948;2023-03-21T12:48:49;100819.19;;;13.92;100.00
45275;BME280;31019;43.780;25.948;2023-03-21T12:51:19;100822.72;;;13.56;100.00
45275;BME280;31019;43.780;25.948;2023-03-21T12:53:56;100822.34;;;13.52;100.00